createdAt,value
2019-05-14T00:01:28.231Z,94909.31
2019-05-14T00:03:54.633Z,94905.77
2019-05-14T00:06:21.940Z,94902.27
2019-05-14T00:08:47.331Z,94910.48
2019-05-14T00:11:13.662Z,94912.50
2019-05-14T00:16:06.340Z,94901.97
2019-05-14T00:18:32.709Z,94904.31
2019-05-14T00:20:59.042Z,94907.72
2019-05-14T00:25:52.337Z,94891.55
2019-05-14T00:28:18.156Z,94884.31
2019-05-14T00:30:44.455Z,94886.17
2019-05-14T00:33:11.562Z,94886.17
2019-05-14T00:35:37.125Z,94888.97
2019-05-14T00:38:03.494Z,94893.31
2019-05-14T00:40:31.429Z,94877.05
2019-05-14T00:42:56.206Z,94878.69
2019-05-14T00:45:22.560Z,94877.55
2019-05-14T00:47:48.940Z,94878.83
2019-05-14T00:50:15.304Z,94880.69
2019-05-14T00:52:44.246Z,94883.72
2019-05-14T00:55:08.107Z,94889.69
2019-05-14T00:57:34.458Z,94893.69
2019-05-14T01:00:01.178Z,94877.88
2019-05-14T01:02:27.153Z,94879.17
2019-05-14T01:04:53.555Z,94883.03
2019-05-14T01:07:21.163Z,94895.55
2019-05-14T01:09:46.197Z,94892.97
2019-05-14T01:12:12.521Z,94896.61
2019-05-14T01:14:38.891Z,94894.27
2019-05-14T01:17:05.230Z,94892.28
2019-05-14T01:19:31.821Z,94878.23
2019-05-14T01:21:57.979Z,94884.20
2019-05-14T01:24:24.351Z,94881.30
2019-05-14T01:26:52.246Z,94891.59
2019-05-14T01:29:17.215Z,94889.02
2019-05-14T01:31:43.556Z,94887.37
2019-05-14T01:34:11.157Z,94875.33
2019-05-14T01:36:36.304Z,94869.82
2019-05-14T01:39:02.638Z,94890.41
2019-05-14T01:41:31.521Z,94895.20
2019-05-14T01:43:55.365Z,94897.20
2019-05-14T01:46:21.699Z,94883.29
2019-05-14T01:48:48.036Z,94877.64
2019-05-14T01:51:14.373Z,94876.86
2019-05-14T01:53:41.730Z,94872.39
2019-05-14T01:56:07.100Z,94878.14
2019-05-14T01:58:33.487Z,94882.80
2019-05-14T02:01:01.985Z,94888.44
2019-05-14T02:05:52.576Z,94882.00
2019-05-14T02:08:21.294Z,94866.06
2019-05-14T02:10:45.340Z,94858.94
2019-05-14T02:13:12.241Z,94871.81
2019-05-14T02:15:40.609Z,94876.95
2019-05-14T02:18:04.485Z,94875.88
2019-05-14T02:20:32.167Z,94865.48
2019-05-14T02:22:57.179Z,94866.41
2019-05-14T02:27:51.793Z,94855.28
2019-05-14T02:30:19.136Z,94860.22
2019-05-14T02:32:42.666Z,94862.42
2019-05-14T02:35:09.883Z,94863.14
2019-05-14T02:37:35.313Z,94859.39
2019-05-14T02:40:01.635Z,94850.38
2019-05-14T02:42:28.911Z,94863.85
2019-05-14T02:44:54.480Z,94865.14
2019-05-14T02:47:20.817Z,94868.04
2019-05-14T02:49:49.814Z,94863.85
2019-05-14T02:52:13.473Z,94863.95
2019-05-14T02:54:40.697Z,94863.59
2019-05-14T02:57:09.869Z,94860.69
2019-05-14T02:59:32.576Z,94870.16
2019-05-14T03:01:59.268Z,94876.12
2019-05-14T03:04:25.304Z,94889.46
2019-05-14T03:06:51.634Z,94888.17
2019-05-14T03:09:20.296Z,94894.02
2019-05-14T03:11:44.422Z,94896.59
2019-05-14T03:14:10.803Z,94904.33
2019-05-14T03:16:40.239Z,94909.13
2019-05-14T03:21:30.589Z,94904.33
2019-05-14T03:23:56.232Z,94912.88
2019-05-14T03:26:22.563Z,94909.70
2019-05-14T03:28:49.892Z,94907.39
2019-05-14T03:31:15.302Z,94910.52
2019-05-14T03:33:43.616Z,94909.83
2019-05-14T03:36:16.005Z,94910.41
2019-05-14T03:38:34.334Z,94914.38
2019-05-14T03:41:00.735Z,94920.58
2019-05-14T03:43:29.558Z,94930.17
2019-05-14T03:45:53.458Z,94938.72
2019-05-14T03:48:19.837Z,94930.89
2019-05-14T03:50:49.236Z,94919.16
2019-05-14T03:53:12.475Z,94922.46
2019-05-14T03:55:40.225Z,94927.47
2019-05-14T03:58:05.226Z,94915.18
2019-05-14T04:00:31.561Z,94894.36
2019-05-14T04:03:00.294Z,94890.59
2019-05-14T04:05:24.375Z,94884.16
2019-05-14T04:07:50.699Z,94888.28
2019-05-14T04:10:19.496Z,94889.42
2019-05-14T04:12:43.374Z,94893.98
2019-05-14T04:15:09.945Z,94886.97
2019-05-14T04:17:39.983Z,94901.00
2019-05-14T04:20:02.509Z,94884.86
2019-05-14T04:22:29.959Z,94883.57
2019-05-14T04:24:55.373Z,94889.91
2019-05-14T04:27:21.803Z,94887.89
2019-05-14T04:29:49.796Z,94878.31
2019-05-14T04:32:14.679Z,94874.09
2019-05-14T04:34:40.894Z,94883.21
2019-05-14T04:37:09.663Z,94880.31
2019-05-14T04:39:33.623Z,94864.15
2019-05-14T04:42:00.140Z,94858.03
2019-05-14T04:44:29.492Z,94864.47
2019-05-14T04:46:52.637Z,94864.37
2019-05-14T04:49:19.879Z,94870.09
2019-05-14T04:51:45.310Z,94863.89
2019-05-14T04:54:13.145Z,94865.08
2019-05-14T04:56:39.811Z,94865.44
2019-05-14T04:59:04.376Z,94863.19
2019-05-14T05:01:30.696Z,94867.52
2019-05-14T05:03:59.124Z,94873.84
2019-05-14T05:06:23.492Z,94866.13
2019-05-14T05:08:50.330Z,94861.33
2019-05-14T05:11:17.255Z,94874.20
2019-05-14T05:13:42.656Z,94879.94
2019-05-14T05:16:09.900Z,94871.96
2019-05-14T05:18:35.418Z,94869.84
2019-05-14T05:21:01.749Z,94868.56
2019-05-14T05:23:28.449Z,94864.45
2019-05-14T05:28:40.523Z,94868.65
2019-05-14T05:31:09.029Z,94872.98
2019-05-14T05:33:33.337Z,94870.05
2019-05-14T05:35:59.726Z,94881.03
2019-05-14T05:38:26.103Z,94887.34
2019-05-14T05:40:52.456Z,94885.91
2019-05-14T05:43:19.253Z,94878.68
2019-05-14T05:45:45.423Z,94877.72
2019-05-14T05:50:38.896Z,94882.41
2019-05-14T05:53:04.654Z,94880.08
2019-05-14T05:55:31.320Z,94883.55
2019-05-14T05:57:58.733Z,94876.75
2019-05-14T06:00:24.065Z,94879.33
2019-05-14T06:02:50.443Z,94879.44
2019-05-14T06:05:18.680Z,94876.75
2019-05-14T06:07:43.185Z,94871.81
2019-05-14T06:10:09.546Z,94867.12
2019-05-14T06:12:38.911Z,94857.49
2019-05-14T06:15:02.382Z,94850.58
2019-05-14T06:17:28.791Z,94851.15
2019-05-14T06:19:55.168Z,94854.41
2019-05-14T06:22:21.621Z,94858.16
2019-05-14T06:24:48.817Z,94855.80
2019-05-14T06:27:15.449Z,94858.84
2019-05-14T06:29:41.809Z,94847.39
2019-05-14T06:32:09.744Z,94847.48
2019-05-14T06:34:38.295Z,94848.42
2019-05-14T06:37:02.757Z,94853.94
2019-05-14T06:39:30.478Z,94851.43
2019-05-14T06:41:58.345Z,94846.63
2019-05-14T06:44:22.651Z,94839.71
2019-05-14T06:46:54.485Z,94826.68
2019-05-14T06:49:20.954Z,94820.95
2019-05-14T06:52:00.268Z,94805.73
2019-05-14T06:54:29.258Z,94796.23
2019-05-14T06:56:53.759Z,94797.17
2019-05-14T06:59:21.526Z,94811.88
2019-05-14T07:01:49.034Z,94813.25
2019-05-14T07:04:19.236Z,94814.08
2019-05-14T07:06:48.439Z,94810.63
2019-05-14T07:09:13.644Z,94803.63
2019-05-14T07:11:42.539Z,94802.19
2019-05-14T07:14:11.618Z,94804.54
2019-05-14T07:19:39.764Z,94703.39
2019-05-14T07:22:22.656Z,94795.51
2019-05-14T07:24:49.895Z,94788.88
2019-05-14T07:35:12.980Z,94790.02
2019-05-14T07:37:39.824Z,94787.15
2019-05-14T07:40:05.734Z,94790.67
2019-05-14T07:42:32.091Z,94796.19
2019-05-14T07:44:58.856Z,94789.91
2019-05-14T07:47:24.878Z,94796.78
2019-05-14T07:49:51.271Z,94796.14
2019-05-14T07:52:19.691Z,94794.80
2019-05-14T07:54:43.946Z,94791.13
2019-05-14T07:57:10.321Z,94784.53
2019-05-14T07:59:38.083Z,94792.16
2019-05-14T08:02:03.075Z,94806.55
2019-05-14T08:04:29.438Z,94796.78
2019-05-14T08:06:58.053Z,94802.56
2019-05-14T08:09:22.119Z,94797.54
2019-05-14T08:11:48.737Z,94800.28
2019-05-14T08:14:15.036Z,94796.33
2019-05-14T08:16:41.373Z,94795.47
2019-05-14T08:19:22.978Z,94791.12
2019-05-14T08:21:34.075Z,94791.02
2019-05-14T08:24:00.436Z,94795.98
2019-05-14T08:26:28.760Z,94797.58
2019-05-14T08:28:53.136Z,94788.63
2019-05-14T08:31:19.485Z,94791.33
2019-05-14T08:33:45.828Z,94792.97
2019-05-14T08:36:12.343Z,94793.41
2019-05-14T08:38:38.750Z,94788.91
2019-05-14T08:41:05.080Z,94768.78
2019-05-14T08:43:31.471Z,94768.78
2019-05-14T08:45:58.780Z,94778.97
2019-05-14T08:48:24.203Z,94772.39
2019-05-14T08:50:50.531Z,94763.34
2019-05-14T08:55:43.268Z,94761.16
2019-05-14T08:58:13.609Z,94763.73
2019-05-14T09:00:35.956Z,94761.50
2019-05-14T09:03:03.259Z,94754.92
2019-05-14T09:05:28.829Z,94758.30
2019-05-14T09:07:55.067Z,94757.98
2019-05-14T09:10:21.462Z,94752.53
2019-05-14T09:12:49.114Z,94750.34
2019-05-14T09:17:40.651Z,94740.19
2019-05-14T09:20:08.480Z,94732.98
2019-05-14T09:22:33.354Z,94730.27
2019-05-14T09:25:00.199Z,94729.11
2019-05-14T09:27:26.060Z,94722.91
2019-05-14T09:29:52.431Z,94718.43
2019-05-14T09:32:19.374Z,94720.59
2019-05-14T09:34:45.103Z,94715.09
2019-05-14T09:37:11.435Z,94712.70
2019-05-14T09:39:38.616Z,94716.42
2019-05-14T09:42:04.116Z,94708.77
2019-05-14T09:44:30.510Z,94707.12
2019-05-14T09:46:59.142Z,94705.01
2019-05-14T09:49:23.184Z,94712.22
2019-05-14T09:51:49.520Z,94712.98
2019-05-14T09:54:15.863Z,94708.66
2019-05-14T09:56:42.248Z,94709.48
2019-05-14T09:59:09.196Z,94709.02
2019-05-14T10:01:34.892Z,94711.41
2019-05-14T10:04:01.261Z,94710.47
2019-05-14T10:06:28.451Z,94705.30
2019-05-14T10:08:54.181Z,94710.44
2019-05-14T10:11:20.551Z,94706.59
2019-05-14T10:13:48.352Z,94691.73
2019-05-14T10:16:13.285Z,94691.73
2019-05-14T10:18:39.643Z,94694.70
2019-05-14T10:21:08.368Z,94694.70
2019-05-14T10:23:32.407Z,94703.15
2019-05-14T10:25:58.739Z,94700.09
2019-05-14T10:28:25.086Z,94696.50
2019-05-14T10:30:51.447Z,94685.58
2019-05-14T10:33:18.227Z,94691.10
2019-05-14T10:35:44.108Z,94701.98
2019-05-14T10:38:10.456Z,94707.00
2019-05-14T10:40:38.426Z,94706.30
2019-05-14T10:43:03.138Z,94706.30
2019-05-14T10:45:29.464Z,94701.95
2019-05-14T10:47:58.450Z,94694.47
2019-05-14T10:50:22.233Z,94690.53
2019-05-14T10:52:49.028Z,94677.31
2019-05-14T10:55:14.832Z,94679.02
2019-05-14T10:57:41.166Z,94679.02
2019-05-14T11:00:08.831Z,94692.23
2019-05-14T11:02:33.874Z,94698.48
2019-05-14T11:05:00.181Z,94702.64
2019-05-14T11:07:29.074Z,94702.64
2019-05-14T11:09:52.970Z,94701.25
2019-05-14T11:12:19.532Z,94691.66
2019-05-14T11:17:12.135Z,94693.59
2019-05-14T11:19:38.944Z,94694.50
2019-05-14T11:22:04.661Z,94687.69
2019-05-14T11:24:31.049Z,94687.37
2019-05-14T11:26:59.079Z,94687.97
2019-05-14T11:29:23.734Z,94685.97
2019-05-14T11:31:50.123Z,94685.53
2019-05-14T11:34:19.054Z,94685.53
2019-05-14T11:36:42.838Z,94683.22
2019-05-14T11:39:09.553Z,94690.98
2019-05-14T11:41:35.524Z,94677.15
2019-05-14T11:44:01.970Z,94680.80
2019-05-14T11:46:41.891Z,94684.86
2019-05-14T11:48:59.381Z,94680.64
2019-05-14T11:51:46.099Z,94680.64
2019-05-14T11:53:50.218Z,94683.48
2019-05-14T11:56:19.175Z,94678.88
2019-05-14T11:58:42.914Z,94678.88
2019-05-14T12:01:09.460Z,94668.16
2019-05-14T12:03:35.799Z,94678.05
2019-05-14T12:06:02.134Z,94677.87
2019-05-14T12:08:28.898Z,94675.77
2019-05-14T12:10:54.784Z,94678.64
2019-05-14T12:13:21.208Z,94672.83
2019-05-14T12:15:48.538Z,94666.34
2019-05-14T12:18:13.961Z,94652.63
2019-05-14T12:20:40.292Z,94652.63
2019-05-14T12:23:08.927Z,94655.27
2019-05-14T12:25:32.962Z,94646.30
2019-05-14T12:27:59.378Z,94642.70
2019-05-14T12:30:28.448Z,94641.55
2019-05-14T12:32:52.087Z,94637.17
2019-05-14T12:35:19.779Z,94618.17
2019-05-14T12:37:44.740Z,94618.17
2019-05-14T12:40:11.122Z,94636.75
2019-05-14T12:42:39.098Z,94636.75
2019-05-14T12:45:03.976Z,94616.28
2019-05-14T12:47:32.542Z,94614.94
2019-05-14T12:49:58.909Z,94592.89
2019-05-14T12:52:26.158Z,94592.89
2019-05-14T12:54:54.246Z,94604.19
2019-05-14T12:57:20.589Z,94604.48
2019-05-14T12:59:48.703Z,94592.08
2019-05-14T13:02:13.349Z,94592.08
2019-05-14T13:04:39.748Z,94584.91
2019-05-14T13:07:08.955Z,94592.19
2019-05-14T13:09:32.500Z,94593.48
2019-05-14T13:11:58.908Z,94583.13
2019-05-14T13:14:25.278Z,94580.49
2019-05-14T13:16:54.452Z,94580.49
2019-05-14T13:19:18.960Z,94590.95
2019-05-14T13:21:44.301Z,94590.95
2019-05-14T13:24:10.632Z,94575.38
2019-05-14T13:26:39.024Z,94575.38
2019-05-14T13:29:07.485Z,94593.68
2019-05-14T13:31:29.768Z,94583.03
2019-05-14T13:33:56.125Z,94583.03
2019-05-14T13:36:22.474Z,94594.91
2019-05-14T13:38:49.242Z,94582.69
2019-05-14T13:41:15.292Z,94568.33
2019-05-14T13:43:41.644Z,94568.33
2019-05-14T13:46:10.480Z,94570.62
2019-05-14T13:48:38.575Z,94574.27
2019-05-14T13:51:00.769Z,94572.22
2019-05-14T13:53:29.326Z,94572.22
2019-05-14T13:55:57.384Z,94573.73
2019-05-14T13:58:20.773Z,94573.73
2019-05-14T14:00:51.557Z,94562.39
2019-05-14T14:03:12.577Z,94563.20
2019-05-14T14:05:39.423Z,94563.20
2019-05-14T14:08:05.259Z,94561.03
2019-05-14T14:10:36.684Z,94556.69
2019-05-14T14:12:59.744Z,94555.70
2019-05-14T14:15:24.352Z,94554.86
2019-05-14T14:17:50.730Z,94550.45
2019-05-14T14:20:19.436Z,94529.76
2019-05-14T14:22:43.441Z,94533.42
2019-05-14T14:25:10.117Z,94531.66
2019-05-14T14:27:39.975Z,94541.35
2019-05-14T14:32:29.173Z,94547.23
2019-05-14T14:34:55.471Z,94527.67
2019-05-14T14:37:21.802Z,94527.67
2019-05-14T14:39:48.816Z,94538.02
2019-05-14T14:42:14.479Z,94538.02
2019-05-14T14:44:40.827Z,94534.58
2019-05-14T14:47:08.028Z,94524.89
2019-05-14T14:49:33.486Z,94532.41
2019-05-14T14:51:59.826Z,94532.41
2019-05-14T14:54:28.669Z,94530.20
2019-05-14T14:56:52.515Z,94531.18
2019-05-14T14:59:19.152Z,94531.18
2019-05-14T15:01:45.375Z,94522.48
2019-05-14T15:04:13.656Z,94522.36
2019-05-14T15:06:39.814Z,94507.72
2019-05-14T15:09:04.487Z,94507.72
2019-05-14T15:11:30.841Z,94496.88
2019-05-14T15:13:59.333Z,94496.88
2019-05-14T15:16:23.536Z,94502.80
2019-05-14T15:18:50.014Z,94519.08
2019-05-14T15:21:18.943Z,94507.38
2019-05-14T15:23:48.452Z,94502.33
2019-05-14T15:26:12.137Z,94502.33
2019-05-14T15:28:35.239Z,94503.14
2019-05-14T15:31:01.607Z,94498.33
2019-05-14T15:33:29.446Z,94489.78
2019-05-14T15:35:54.214Z,94484.10
2019-05-14T15:38:20.591Z,94485.39
2019-05-14T15:40:48.933Z,94487.45
2019-05-14T15:43:13.250Z,94482.27
2019-05-14T15:45:39.598Z,94482.27
2019-05-14T15:48:08.704Z,94478.75
2019-05-14T15:50:32.782Z,94478.75
2019-05-14T15:52:58.612Z,94475.64
2019-05-14T15:55:24.968Z,94479.28
2019-05-14T15:57:51.351Z,94467.95
2019-05-14T16:00:19.794Z,94467.53
2019-05-14T16:02:44.028Z,94458.13
2019-05-14T16:05:10.514Z,94473.08
2019-05-14T16:07:39.113Z,94479.23
2019-05-14T16:10:03.004Z,94479.23
2019-05-14T16:12:32.282Z,94471.42
2019-05-14T16:14:55.728Z,94464.70
2019-05-14T16:17:25.249Z,94470.34
2019-05-14T16:19:48.785Z,94469.39
2019-05-14T16:22:14.719Z,94462.45
2019-05-14T16:24:55.659Z,94461.30
2019-05-14T16:27:08.456Z,94463.22
2019-05-14T16:29:44.102Z,94464.47
2019-05-14T16:32:00.177Z,94459.30
2019-05-14T16:34:28.618Z,94479.50
2019-05-14T16:36:52.994Z,94486.26
2019-05-14T16:41:45.703Z,94480.43
2019-05-14T16:44:12.127Z,94484.78
2019-05-14T16:46:38.665Z,94485.73
2019-05-14T16:49:04.751Z,94470.35
2019-05-14T16:51:31.087Z,94471.75
2019-05-14T16:53:59.008Z,94480.14
2019-05-14T16:56:23.836Z,94486.36
2019-05-14T16:58:50.170Z,94487.64
2019-05-14T17:01:18.949Z,94493.44
2019-05-14T17:03:42.921Z,94493.97
2019-05-14T17:06:09.300Z,94487.31
2019-05-14T17:08:35.668Z,94472.23
2019-05-14T17:11:02.121Z,94478.56
2019-05-14T17:13:28.613Z,94474.00
2019-05-14T17:15:54.848Z,94478.50
2019-05-14T17:18:21.208Z,94472.27
2019-05-14T17:20:48.802Z,94475.89
2019-05-14T17:23:13.995Z,94480.08
2019-05-14T17:25:40.523Z,94483.51
2019-05-14T17:28:08.470Z,94487.85
2019-05-14T17:30:33.225Z,94485.93
2019-05-14T17:32:59.520Z,94485.30
2019-05-14T17:35:25.865Z,94490.71
2019-05-14T17:37:52.182Z,94487.56
2019-05-14T17:40:18.512Z,94487.66
2019-05-14T17:42:44.936Z,94485.83
2019-05-14T17:45:11.250Z,94490.32
2019-05-14T17:47:38.764Z,94481.95
2019-05-14T17:50:03.965Z,94487.39
2019-05-14T17:52:30.467Z,94488.41
2019-05-14T17:54:56.808Z,94489.93
2019-05-14T17:57:25.456Z,94486.97
2019-05-14T17:59:49.797Z,94487.72
2019-05-14T18:02:16.027Z,94481.91
2019-05-14T18:04:42.430Z,94482.27
2019-05-14T18:07:08.790Z,94481.88
2019-05-14T18:09:35.126Z,94485.66
2019-05-14T18:12:01.453Z,94493.46
2019-05-14T18:14:28.512Z,94489.81
2019-05-14T18:16:54.192Z,94493.01
2019-05-14T18:19:20.573Z,94485.58
2019-05-14T18:21:48.618Z,94484.84
2019-05-14T18:24:13.280Z,94484.80
2019-05-14T18:26:39.699Z,94483.16
2019-05-14T18:29:08.595Z,94483.23
2019-05-14T18:31:32.574Z,94489.41
2019-05-14T18:33:58.947Z,94480.58
2019-05-14T18:36:25.341Z,94482.97
2019-05-14T18:38:51.676Z,94486.77
2019-05-14T18:41:18.916Z,94485.26
2019-05-14T18:43:44.362Z,94490.72
2019-05-14T18:46:10.861Z,94484.80
2019-05-14T18:48:37.213Z,94488.45
2019-05-14T18:51:03.618Z,94492.45
2019-05-14T18:53:29.947Z,94500.27
2019-05-14T18:55:56.328Z,94496.86
2019-05-14T18:58:22.692Z,94493.47
2019-05-14T19:00:49.022Z,94496.98
2019-05-14T19:03:15.399Z,94495.78
2019-05-14T19:05:41.726Z,94498.20
2019-05-14T19:08:08.063Z,94497.73
2019-05-14T19:10:34.411Z,94492.38
2019-05-14T19:13:00.888Z,94488.86
2019-05-14T19:15:27.344Z,94486.55
2019-05-14T19:17:53.687Z,94483.69
2019-05-14T19:20:20.027Z,94486.20
2019-05-14T19:22:48.905Z,94476.98
2019-05-14T19:25:12.844Z,94475.73
2019-05-14T19:27:39.174Z,94476.73
2019-05-14T19:30:05.570Z,94474.98
2019-05-14T19:32:31.918Z,94477.09
2019-05-14T19:37:24.617Z,94474.97
2019-05-14T19:39:51.006Z,94479.92
2019-05-14T19:42:18.297Z,94488.51
2019-05-14T19:44:43.691Z,94484.41
2019-05-14T19:47:10.091Z,94485.38
2019-05-14T19:49:38.269Z,94481.63
2019-05-14T19:52:02.920Z,94467.45
2019-05-14T19:54:29.397Z,94458.24
2019-05-14T19:56:57.333Z,94466.22
2019-05-14T19:59:22.106Z,94458.56
2019-05-14T20:01:48.579Z,94455.13
2019-05-14T20:04:14.923Z,94461.33
2019-05-14T20:06:41.223Z,94468.02
2019-05-14T20:09:09.551Z,94461.10
2019-05-14T20:11:33.961Z,94469.22
2019-05-14T20:14:00.312Z,94476.39
2019-05-14T20:16:28.533Z,94479.61
2019-05-14T20:18:53.077Z,94468.40
2019-05-14T20:21:19.413Z,94461.28
2019-05-14T20:23:47.911Z,94469.95
2019-05-14T20:26:12.152Z,94470.86
2019-05-14T20:28:39.064Z,94478.78
2019-05-14T20:31:04.831Z,94478.32
2019-05-14T20:33:31.153Z,94481.98
2019-05-14T20:35:58.975Z,94493.75
2019-05-14T20:38:23.827Z,94502.05
2019-05-14T20:40:50.170Z,94515.88
2019-05-14T20:43:18.529Z,94516.75
2019-05-14T20:45:42.908Z,94518.25
2019-05-14T20:48:09.257Z,94524.88
2019-05-14T20:50:35.666Z,94516.45
2019-05-14T20:53:02.101Z,94507.16
2019-05-14T20:55:28.847Z,94519.11
2019-05-14T20:57:54.884Z,94526.86
2019-05-14T21:00:21.207Z,94527.19
2019-05-14T21:05:14.029Z,94544.59
2019-05-14T21:07:40.219Z,94548.14
2019-05-14T21:10:06.532Z,94549.17
2019-05-14T21:12:32.876Z,94559.12
2019-05-14T21:14:59.272Z,94564.06
2019-05-14T21:17:28.096Z,94568.48
2019-05-14T21:19:52.046Z,94567.61
2019-05-14T21:22:19.154Z,94574.45
2019-05-14T21:24:44.729Z,94570.29
2019-05-14T21:27:11.049Z,94578.59
2019-05-14T21:29:38.208Z,94580.41
2019-05-14T21:32:03.762Z,94585.20
2019-05-14T21:34:30.083Z,94585.91
2019-05-14T21:36:58.160Z,94568.72
2019-05-14T21:39:22.784Z,94571.12
2019-05-14T21:41:49.192Z,94559.75
2019-05-14T21:44:15.468Z,94546.27
2019-05-14T21:46:41.856Z,94552.34
2019-05-14T21:49:10.839Z,94553.67
2019-05-14T21:51:34.579Z,94567.06
2019-05-14T21:54:00.923Z,94569.22
2019-05-14T21:56:29.159Z,94579.36
2019-05-14T21:58:53.656Z,94587.45
2019-05-14T22:01:19.989Z,94596.41
2019-05-14T22:03:48.424Z,94609.16
2019-05-14T22:06:12.710Z,94615.83
2019-05-14T22:08:39.470Z,94604.28
2019-05-14T22:11:05.407Z,94614.83
2019-05-14T22:13:31.807Z,94618.65
2019-05-14T22:15:58.909Z,94611.64
2019-05-14T22:20:50.761Z,94605.06
2019-05-14T22:23:17.847Z,94607.64
2019-05-14T22:25:43.469Z,94608.67
2019-05-14T22:28:15.337Z,94598.99
2019-05-14T22:30:38.626Z,94602.35
2019-05-14T22:33:02.516Z,94603.70
2019-05-14T22:35:31.278Z,94599.42
2019-05-14T22:37:55.189Z,94606.84
2019-05-14T22:40:21.535Z,94596.31
2019-05-14T22:42:47.910Z,94608.84
2019-05-14T22:45:14.243Z,94618.75
2019-05-14T22:47:40.676Z,94633.75
2019-05-14T22:50:08.939Z,94628.82
2019-05-14T22:52:33.314Z,94621.11
2019-05-14T22:54:59.723Z,94628.47
2019-05-14T22:57:26.185Z,94626.93
2019-05-14T22:59:52.514Z,94631.01
2019-05-14T23:04:45.183Z,94621.13
2019-05-14T23:07:11.592Z,94633.44
2019-05-14T23:09:38.701Z,94640.41
2019-05-14T23:12:04.360Z,94648.61
2019-05-14T23:14:30.724Z,94648.31
2019-05-14T23:16:57.059Z,94639.42
2019-05-14T23:19:23.448Z,94628.55
2019-05-14T23:21:49.795Z,94623.64
2019-05-14T23:24:18.752Z,94628.63
2019-05-14T23:26:42.538Z,94621.38
2019-05-14T23:29:09.012Z,94622.38
2019-05-14T23:31:35.343Z,94624.17
2019-05-14T23:34:01.713Z,94630.82
2019-05-14T23:36:29.160Z,94643.46
2019-05-14T23:38:54.335Z,94649.38
2019-05-14T23:41:20.724Z,94644.25
2019-05-14T23:43:47.063Z,94647.49
2019-05-14T23:46:13.505Z,94632.21
2019-05-14T23:48:39.835Z,94638.62
2019-05-14T23:51:08.122Z,94643.86
2019-05-14T23:53:32.522Z,94635.83
2019-05-14T23:55:58.882Z,94635.70
